Time;durP1;ratioP1;P1;durP2;ratioP2;P2;SDS_P1;SDS_P2;PMS_P1;PMS_P2;Temp;Humidity;BMP_temperature;BMP_pressure;BME280_temperature;BME280_humidity;BME280_pressure;Samples;Min_cycle;Max_cycle;Signal;HPM_P1;HPM_P2
2021/11/02 00:01:59;;;;;;;47.20;29.00;;;;;;;9.37;59.43;97838.68;236479;1194;140344;-59
2021/11/02 00:07:04;;;;;;;40.50;25.70;;;;;;;9.34;59.39;97830.13;236246;1193;138796;-59
2021/11/02 00:12:07;;;;;;;40.40;26.10;;;;;;;9.29;59.60;97821.14;236308;1195;138049;-59
2021/11/02 00:17:15;;;;;;;43.30;26.50;;;;;;;9.24;59.43;97823.39;236417;1195;137766;-59
2021/11/02 00:22:21;;;;;;;42.90;26.90;;;;;;;9.23;59.72;97821.67;236555;1194;138912;-60
2021/11/02 00:27:26;;;;;;;47.10;26.70;;;;;;;9.26;59.71;97819.20;236372;1195;138406;-61
2021/11/02 00:32:29;;;;;;;38.70;24.50;;;;;;;9.28;59.59;97801.02;236324;1194;140638;-57
2021/11/02 00:37:32;;;;;;;39.30;25.10;;;;;;;9.29;59.91;97798.95;236352;1195;138514;-57
2021/11/02 00:42:41;;;;;;;42.50;23.80;;;;;;;9.31;59.96;97797.77;236641;1193;138050;-58
2021/11/02 00:47:44;;;;;;;36.40;22.20;;;;;;;9.38;60.01;97796.52;236213;1195;139221;-58
2021/11/02 00:52:49;;;;;;;34.80;22.70;;;;;;;9.51;60.00;97791.96;236303;1195;138567;-59
2021/11/02 00:57:52;;;;;;;37.80;23.10;;;;;;;9.65;60.09;97784.11;236471;1195;138112;-57
2021/11/02 01:02:55;;;;;;;42.00;24.90;;;;;;;9.75;59.84;97779.95;236333;1195;137755;-59
2021/11/02 01:07:59;;;;;;;39.20;25.00;;;;;;;9.80;59.74;97780.43;236010;1195;138045;-60
2021/11/02 01:13:02;;;;;;;42.40;26.10;;;;;;;9.81;59.80;97775.40;236414;1194;140308;-60
2021/11/02 01:18:05;;;;;;;38.40;25.30;;;;;;;9.82;59.50;97772.16;236563;1194;138933;-60
2021/11/02 01:23:11;;;;;;;45.40;25.70;;;;;;;9.80;59.58;97774.59;236272;1194;137723;-59
2021/11/02 01:28:15;;;;;;;41.50;25.20;;;;;;;9.79;59.57;97769.38;235838;1195;137864;-59
2021/11/02 01:33:19;;;;;;;42.60;27.50;;;;;;;9.76;59.63;97755.83;236142;1195;139534;-60
2021/11/02 01:38:25;;;;;;;41.90;26.10;;;;;;;9.71;59.74;97752.67;236629;1195;138370;-59
2021/11/02 01:43:34;;;;;;;41.20;25.40;;;;;;;9.65;59.75;97756.45;236570;1194;137593;-59
2021/11/02 01:48:37;;;;;;;39.90;24.80;;;;;;;9.63;59.70;97748.86;236106;1194;138938;-58
2021/11/02 01:53:41;;;;;;;41.40;25.00;;;;;;;9.61;59.75;97746.92;235971;1195;138230;-59
2021/11/02 01:58:52;;;;;;;40.80;24.70;;;;;;;9.58;60.01;97737.42;236508;1195;138116;-59
2021/11/02 02:04:08;;;;;;;41.70;25.40;;;;;;;9.58;59.85;97733.48;236450;1194;139360;-59
2021/11/02 02:09:19;;;;;;;36.50;22.60;;;;;;;9.60;60.12;97717.60;236399;1194;138435;-59
2021/11/02 02:14:37;;;;;;;36.60;23.20;;;;;;;9.65;59.87;97712.41;236366;1194;139325;-60
2021/11/02 02:20:18;;;;;;;38.30;23.80;;;;;;;9.71;60.23;97706.27;236661;1194;139299;-56
2021/11/02 02:25:34;;;;;;;37.50;23.70;;;;;;;9.77;60.17;97697.45;236169;1193;138600;-59
2021/11/02 02:31:04;;;;;;;33.80;21.80;;;;;;;9.82;60.01;97692.50;236352;1194;138360;-57
2021/11/02 02:36:11;;;;;;;33.00;21.80;;;;;;;9.83;59.85;97697.67;236417;1194;138843;-58
2021/11/02 02:41:30;;;;;;;33.20;22.10;;;;;;;9.82;59.77;97704.33;236554;1194;137688;-60
2021/11/02 02:46:36;;;;;;;32.40;22.30;;;;;;;9.80;60.08;97704.33;236239;1195;138688;-58
2021/11/02 02:51:44;;;;;;;32.40;21.80;;;;;;;9.79;59.94;97704.95;236190;1195;137888;-61
2021/11/02 02:56:50;;;;;;;31.40;22.30;;;;;;;9.78;59.89;97699.11;236084;1195;138212;-61
2021/11/02 03:01:54;;;;;;;29.60;19.60;;;;;;;9.78;59.85;97700.91;236267;1194;138248;-59
2021/11/02 03:07:02;;;;;;;30.30;20.70;;;;;;;9.78;60.04;97703.73;236014;1195;139340;-60
2021/11/02 03:12:06;;;;;;;;;;;;;;;9.79;60.09;97705.08;236148;1193;138347;-59
2021/11/02 03:17:13;;;;;;;28.30;18.90;;;;;;;9.77;60.22;97698.52;236102;1196;124326;-58
2021/11/02 03:49:40;;;;;;;49.30;29.00;;;;;;;9.68;60.28;97685.22;236311;1195;140219;-59
2021/11/02 03:54:50;;;;;;;41.90;26.10;;;;;;;9.73;60.42;97674.77;236260;1194;138574;-59
2021/11/02 05:48:21;;;;;;;46.60;32.20;;;;;;;10.48;61.30;97607.08;235724;1193;139900;-60
2021/11/02 06:04:13;;;;;;;41.20;26.00;;;;;;;10.18;61.23;97587.98;236247;1194;138400;-59
2021/11/02 06:31:26;;;;;;;171.00;123.80;;;;;;;9.93;62.22;97612.19;236175;1195;138467;-60
2021/11/02 06:36:33;;;;;;;43.70;27.90;;;;;;;9.95;62.43;97620.16;236420;1193;140064;-60
2021/11/02 07:20:05;;;;;;;43.50;27.20;;;;;;;9.83;63.62;97659.95;236500;1194;138382;-59
2021/11/02 08:51:25;;;;;;;37.80;25.20;;;;;;;10.10;65.42;97630.65;236033;1195;140222;-61
2021/11/02 08:56:29;;;;;;;94.70;58.50;;;;;;;10.21;65.83;97634.51;236039;1195;139316;-59
2021/11/02 09:01:36;;;;;;;43.20;27.30;;;;;;;10.36;65.85;97630.23;236148;1193;138670;-59
2021/11/02 09:06:40;;;;;;;46.00;26.30;;;;;;;10.34;65.76;97632.17;236290;1193;138450;-61
2021/11/02 09:11:45;;;;;;;42.50;26.10;;;;;;;10.31;65.77;97631.36;236464;1195;138932;-60
2021/11/02 09:16:50;;;;;;;49.50;28.30;;;;;;;10.32;65.74;97636.09;236361;1193;139043;-60
2021/11/02 09:21:54;;;;;;;47.60;27.60;;;;;;;10.32;65.84;97639.11;236099;1193;138713;-59
2021/11/02 09:26:59;;;;;;;41.30;27.40;;;;;;;10.32;66.02;97639.99;236198;1195;138500;-58
2021/11/02 09:32:10;;;;;;;38.30;26.00;;;;;;;10.32;65.92;97638.90;236568;1193;138703;-58
2021/11/02 09:37:26;;;;;;;37.30;24.60;;;;;;;10.31;65.91;97638.16;236588;1195;138955;-59
2021/11/02 09:42:57;;;;;;;33.20;24.70;;;;;;;10.33;66.19;97639.77;236413;1194;140314;-56
2021/11/02 09:48:20;;;;;;;37.90;25.40;;;;;;;10.37;66.32;97641.04;236093;1193;139185;-60
2021/11/02 09:53:56;;;;;;;37.40;27.30;;;;;;;10.38;65.98;97642.67;236570;1193;138576;-59
2021/11/02 09:59:19;;;;;;;46.30;30.00;;;;;;;10.42;66.31;97640.43;236038;1193;138491;-60
2021/11/02 10:04:35;;;;;;;45.00;29.10;;;;;;;10.42;66.05;97638.06;236283;1194;139441;-60
2021/11/02 10:09:59;;;;;;;42.20;29.50;;;;;;;10.38;66.26;97640.89;236559;1193;138546;-59
2021/11/02 10:15:27;;;;;;;41.00;29.30;;;;;;;10.32;66.05;97642.62;236385;1193;139630;-60
2021/11/02 10:20:42;;;;;;;38.10;25.80;;;;;;;10.27;66.37;97646.26;236329;1194;138275;-60
2021/11/02 10:25:57;;;;;;;37.90;26.70;;;;;;;10.27;66.31;97645.55;236354;1193;139378;-60
2021/11/02 10:31:11;;;;;;;38.60;26.40;;;;;;;10.30;66.52;97651.00;236387;1195;138982;-61
2021/11/02 10:36:17;;;;;;;43.20;28.10;;;;;;;10.31;66.58;97645.95;236520;1194;139192;-59
2021/11/02 10:41:22;;;;;;;;;;;;;;;10.32;66.74;97637.87;236666;1195;138891;-58
2021/11/02 10:46:32;;;;;;;39.80;28.40;;;;;;;10.31;66.71;97635.26;236338;1193;125239;-60
2021/11/02 10:51:57;;;;;;;42.90;30.10;;;;;;;10.28;66.75;97637.36;236339;1194;139183;-60
2021/11/02 10:57:05;;;;;;;39.80;27.30;;;;;;;10.23;66.79;97638.75;236130;1193;139138;-59
2021/11/02 11:02:26;;;;;;;40.70;27.70;;;;;;;10.23;66.79;97636.45;236483;1194;139430;-59
2021/11/02 11:07:40;;;;;;;41.30;29.40;;;;;;;10.26;66.82;97641.58;236605;1193;138856;-59
2021/11/02 11:12:55;;;;;;;39.20;29.10;;;;;;;10.29;67.06;97640.45;236559;1195;139001;-59
2021/11/02 11:18:10;;;;;;;42.30;30.10;;;;;;;10.30;67.12;97638.58;236475;1194;138456;-59
2021/11/02 11:23:14;;;;;;;40.50;29.10;;;;;;;10.33;67.10;97638.13;236697;1193;138740;-59
2021/11/02 11:28:19;;;;;;;40.30;27.80;;;;;;;10.34;67.05;97635.89;236541;1193;139060;-59
2021/11/02 11:33:26;;;;;;;38.60;26.60;;;;;;;10.37;67.32;97637.23;236282;1195;139178;-58
2021/11/02 11:38:39;;;;;;;40.20;27.70;;;;;;;10.43;67.25;97635.16;236192;1195;139126;-60
2021/11/02 11:43:43;;;;;;;40.10;28.50;;;;;;;10.49;67.51;97630.09;236543;1193;138696;-58
2021/11/02 11:48:58;;;;;;;39.40;27.20;;;;;;;10.50;67.62;97625.03;236440;1193;139654;-58
2021/11/02 11:54:05;;;;;;;36.60;27.20;;;;;;;10.50;67.25;97614.77;236597;1193;138722;-59
2021/11/02 11:59:17;;;;;;;41.50;28.00;;;;;;;10.50;67.44;97614.02;235598;1195;138380;-59
2021/11/02 12:04:42;;;;;;;35.60;25.60;;;;;;;10.50;67.39;97620.76;236245;1193;138858;-58
2021/11/02 12:09:46;;;;;;;38.70;26.40;;;;;;;10.49;67.44;97615.67;236388;1195;139510;-59
2021/11/02 12:14:53;;;;;;;38.10;26.70;;;;;;;10.50;67.37;97614.92;236471;1195;139555;-60
2021/11/02 12:20:11;;;;;;;38.90;27.60;;;;;;;10.51;67.45;97615.52;236350;1194;138555;-58
2021/11/02 12:25:40;;;;;;;39.40;28.10;;;;;;;10.50;67.34;97621.31;236057;1195;138604;-57
2021/11/02 12:30:44;;;;;;;42.10;29.20;;;;;;;10.47;67.50;97624.06;235731;1195;138448;-58
2021/11/02 12:35:52;;;;;;;37.90;28.30;;;;;;;10.44;67.52;97634.27;235365;1195;138264;-59
2021/11/02 12:40:56;;;;;;;38.80;26.30;;;;;;;10.39;67.79;97631.43;235816;1196;138543;-57
2021/11/02 12:46:01;;;;;;;36.30;26.70;;;;;;;10.40;67.78;97626.74;235618;1196;139291;-59
2021/11/02 12:51:10;;;;;;;40.60;28.10;;;;;;;10.46;67.78;97622.91;235593;1196;141201;-59
2021/11/02 12:56:19;;;;;;;41.20;29.70;;;;;;;10.50;68.04;97619.34;235306;1195;138827;-59
2021/11/02 13:01:35;;;;;;;40.10;29.10;;;;;;;10.54;67.97;97623.61;235392;1193;138297;-58
2021/11/02 13:06:50;;;;;;;38.90;27.80;;;;;;;10.54;67.90;97621.85;236485;1194;138414;-57
2021/11/02 13:12:03;;;;;;;44.60;30.20;;;;;;;10.52;67.92;97617.03;236238;1194;138782;-58
2021/11/02 13:17:10;;;;;;;39.70;27.60;;;;;;;10.51;68.14;97613.56;236641;1193;138566;-59
2021/11/02 13:22:25;;;;;;;39.30;27.40;;;;;;;10.55;68.29;97599.73;236432;1193;139588;-58
2021/11/02 13:27:41;;;;;;;41.20;28.20;;;;;;;10.61;68.03;97601.00;236579;1195;139098;-57
2021/11/02 13:33:02;;;;;;;45.20;30.70;;;;;;;10.68;68.16;97602.94;236340;1194;139243;-59
2021/11/02 13:38:27;;;;;;;45.50;31.20;;;;;;;10.68;68.03;97607.73;236199;1193;141515;-59
2021/11/02 13:43:35;;;;;;;90.80;60.30;;;;;;;10.65;68.01;97607.41;236132;1193;138847;-58
2021/11/02 13:48:40;;;;;;;45.30;32.10;;;;;;;10.68;68.04;97617.09;236434;1195;139000;-58
2021/11/02 13:53:45;;;;;;;43.60;30.10;;;;;;;10.61;68.04;97620.54;236410;1194;139107;-59
2021/11/02 13:58:50;;;;;;;43.30;29.60;;;;;;;10.56;67.76;97619.67;236035;1194;139268;-58
2021/11/02 14:04:14;;;;;;;46.30;32.10;;;;;;;10.55;68.00;97612.36;236138;1195;139414;-57
2021/11/02 14:09:26;;;;;;;49.40;32.40;;;;;;;10.59;68.06;97614.83;236054;1193;140453;-60
2021/11/02 14:14:40;;;;;;;49.20;33.10;;;;;;;10.61;67.83;97623.67;235537;1193;138195;-61
2021/11/02 14:19:47;;;;;;;48.10;32.80;;;;;;;10.59;67.86;97623.37;236212;1193;138809;-61
2021/11/02 14:24:50;;;;;;;47.60;33.90;;;;;;;10.54;68.01;97621.70;236355;1194;139230;-61
2021/11/02 14:29:57;;;;;;;42.40;29.80;;;;;;;10.50;68.06;97621.34;236574;1193;138511;-62
2021/11/02 14:35:06;;;;;;;66.90;44.80;;;;;;;10.48;68.04;97620.90;236518;1194;139385;-62
2021/11/02 14:40:11;;;;;;;45.60;32.20;;;;;;;10.53;68.22;97617.30;235341;1195;139172;-62
2021/11/02 14:45:20;;;;;;;47.40;32.90;;;;;;;10.55;68.10;97620.84;235982;1193;138837;-62
2021/11/02 14:50:31;;;;;;;46.80;32.70;;;;;;;10.52;67.98;97618.66;236441;1194;141219;-62
2021/11/02 14:56:16;;;;;;;46.40;32.10;;;;;;;10.49;68.27;97618.70;236321;1193;140734;-61
2021/11/02 15:01:32;;;;;;;48.50;34.00;;;;;;;10.46;68.10;97615.61;236389;1193;139112;-61
2021/11/02 15:06:59;;;;;;;44.90;31.10;;;;;;;10.41;68.20;97625.95;235917;1195;138997;-65
2021/11/02 15:12:07;;;;;;;49.40;34.50;;;;;;;10.38;68.25;97628.87;236384;1193;139309;-63
2021/11/02 15:17:12;;;;;;;56.30;38.40;;;;;;;10.38;68.23;97623.19;235897;1195;139127;-61
2021/11/02 15:22:20;;;;;;;53.60;36.60;;;;;;;10.39;68.55;97622.89;236221;1194;138633;-61
2021/11/02 15:27:30;;;;;;;56.30;37.40;;;;;;;10.40;68.51;97635.25;236164;1193;138855;-60
2021/11/02 15:32:42;;;;;;;58.50;38.90;;;;;;;10.37;68.63;97639.75;236382;1195;139309;-60
2021/11/02 15:37:55;;;;;;;55.50;36.10;;;;;;;10.33;68.53;97644.01;236344;1194;138597;-63
2021/11/02 15:43:00;;;;;;;48.10;34.80;;;;;;;10.32;68.56;97640.18;236266;1194;139162;-61
2021/11/02 15:48:17;;;;;;;52.10;35.90;;;;;;;10.33;68.70;97644.53;235771;1193;139147;-63
2021/11/02 15:53:28;;;;;;;51.70;34.70;;;;;;;10.35;68.93;97649.82;236622;1193;138913;-62
2021/11/02 15:58:34;;;;;;;54.20;36.80;;;;;;;10.42;69.28;97650.48;236021;1195;139009;-61
2021/11/02 16:03:39;;;;;;;55.20;34.90;;;;;;;10.52;69.10;97651.07;235785;1194;138954;-60
2021/11/02 16:08:42;;;;;;;45.60;31.20;;;;;;;10.48;68.88;97642.20;236028;1193;138164;-60
2021/11/02 16:13:45;;;;;;;46.50;31.60;;;;;;;10.46;68.77;97641.30;236236;1195;142283;-61
2021/11/02 16:18:53;;;;;;;48.20;32.80;;;;;;;10.47;68.62;97637.37;236301;1195;139128;-60
2021/11/02 16:24:07;;;;;;;44.90;31.90;;;;;;;10.47;69.04;97633.92;236024;1195;138814;-62
2021/11/02 16:29:13;;;;;;;49.80;34.50;;;;;;;10.46;68.83;97632.32;236370;1193;138465;-61
2021/11/02 16:34:22;;;;;;;53.70;35.40;;;;;;;10.41;68.64;97635.17;236277;1194;138960;-62
2021/11/02 16:39:25;;;;;;;52.20;34.80;;;;;;;10.37;69.11;97628.78;236417;1194;141540;-62
2021/11/02 16:44:32;;;;;;;51.30;35.70;;;;;;;10.36;68.84;97635.04;236337;1195;139395;-61
2021/11/02 16:49:36;;;;;;;53.50;37.20;;;;;;;10.38;68.90;97639.70;236307;1195;139002;-60
2021/11/02 16:54:44;;;;;;;50.90;35.50;;;;;;;10.40;69.04;97645.38;236248;1193;139267;-61
2021/11/02 17:00:01;;;;;;;54.40;37.50;;;;;;;10.40;68.97;97656.55;236270;1194;138801;-62
2021/11/02 17:05:04;;;;;;;59.40;39.20;;;;;;;10.36;69.09;97662.14;236304;1194;139446;-57
2021/11/02 17:10:23;;;;;;;50.90;34.30;;;;;;;10.32;68.93;97671.52;236477;1194;138522;-60
2021/11/02 17:15:29;;;;;;;53.70;33.90;;;;;;;10.36;69.34;97674.25;236391;1193;140002;-60
2021/11/02 17:20:34;;;;;;;41.30;29.70;;;;;;;10.36;68.88;97680.30;236169;1195;138963;-59
2021/11/02 17:25:37;;;;;;;40.10;28.10;;;;;;;10.27;68.78;97682.21;235266;1194;138435;-58
2021/11/02 17:30:41;;;;;;;43.80;31.80;;;;;;;10.19;68.63;97686.06;236144;1195;138825;-59
2021/11/02 17:35:45;;;;;;;44.00;30.70;;;;;;;10.17;69.13;97688.36;236259;1194;139577;-58
2021/11/02 17:40:48;;;;;;;41.10;28.50;;;;;;;10.18;69.33;97694.11;236339;1193;138232;-59
2021/11/02 17:45:52;;;;;;;49.10;31.70;;;;;;;10.24;69.47;97693.68;236351;1193;139226;-58
2021/11/02 17:50:55;;;;;;;41.40;29.00;;;;;;;10.39;69.89;97701.98;235577;1193;138900;-59
2021/11/02 17:56:05;;;;;;;40.60;29.30;;;;;;;10.43;69.51;97703.10;236416;1193;138232;-59
2021/11/02 18:01:10;;;;;;;34.90;24.80;;;;;;;10.43;69.32;97710.04;236336;1193;138275;-61
2021/11/02 18:06:16;;;;;;;36.30;25.50;;;;;;;10.37;69.35;97713.17;236365;1194;141139;-60
2021/11/02 18:11:19;;;;;;;37.20;24.80;;;;;;;10.30;69.31;97715.02;235951;1195;233214;-59
2021/11/02 18:16:23;;;;;;;27.60;20.10;;;;;;;10.24;69.53;97718.45;236333;1194;138386;-61
2021/11/02 18:21:27;;;;;;;30.20;21.30;;;;;;;10.20;69.41;97717.89;236409;1193;139686;-63
2021/11/02 18:26:32;;;;;;;35.00;22.70;;;;;;;10.18;69.48;97719.46;236321;1194;138541;-60
2021/11/02 18:31:36;;;;;;;27.70;19.90;;;;;;;10.15;69.75;97720.08;236162;1195;141211;-61
2021/11/02 18:36:39;;;;;;;28.40;19.80;;;;;;;10.10;69.63;97717.27;236295;1194;138425;-59
2021/11/02 18:41:43;;;;;;;26.70;19.10;;;;;;;10.09;69.91;97718.43;236280;1195;139025;-59
2021/11/02 18:46:47;;;;;;;23.70;17.60;;;;;;;10.07;69.97;97723.86;236379;1194;139037;-61
2021/11/02 18:51:53;;;;;;;27.90;18.90;;;;;;;10.08;69.95;97723.66;235851;1195;139843;-61
2021/11/02 18:56:56;;;;;;;29.70;21.20;;;;;;;10.17;70.45;97723.60;236012;1195;139546;-60
2021/11/02 19:01:59;;;;;;;27.50;18.50;;;;;;;10.30;70.33;97723.52;236406;1194;138394;-57
2021/11/02 19:07:02;;;;;;;27.50;19.60;;;;;;;10.26;70.03;97727.70;236379;1194;138618;-62
2021/11/02 19:12:06;;;;;;;27.60;19.40;;;;;;;10.19;70.17;97723.60;236383;1194;138794;-58
2021/11/02 19:17:09;;;;;;;25.50;18.10;;;;;;;10.11;70.07;97733.64;236557;1194;138713;-60
2021/11/02 19:22:12;;;;;;;24.20;17.00;;;;;;;10.05;70.14;97741.58;236186;1194;140270;-59
2021/11/02 19:27:15;;;;;;;24.70;18.30;;;;;;;10.04;70.23;97746.52;236555;1194;139291;-59
2021/11/02 19:32:19;;;;;;;23.40;17.00;;;;;;;10.03;70.41;97746.42;236513;1187;138493;-58
2021/11/02 19:37:24;;;;;;;25.70;18.70;;;;;;;9.94;70.25;97746.59;236373;1195;138743;-60
2021/11/02 19:42:27;;;;;;;25.50;17.60;;;;;;;9.83;70.26;97753.51;236182;1195;138608;-60
2021/11/02 19:47:30;;;;;;;26.00;16.80;;;;;;;9.77;70.40;97758.80;236433;1195;138394;-60
2021/11/02 19:52:34;;;;;;;27.00;18.90;;;;;;;9.76;70.67;97763.44;236244;1195;139140;-58
2021/11/02 19:57:38;;;;;;;26.40;19.30;;;;;;;9.74;70.66;97771.52;236350;1195;138521;-59
2021/11/02 20:02:41;;;;;;;23.50;18.10;;;;;;;9.74;70.61;97778.10;236370;1194;139136;-60
2021/11/02 20:07:47;;;;;;;27.00;18.80;;;;;;;9.71;70.79;97784.33;236138;1194;139490;-64
2021/11/02 20:13:02;;;;;;;26.90;17.90;;;;;;;9.68;70.51;97791.81;236554;1194;139413;-60
2021/11/02 20:18:06;;;;;;;23.90;16.50;;;;;;;9.67;70.49;97798.23;235982;1193;139071;-61
2021/11/02 20:23:10;;;;;;;26.50;18.70;;;;;;;9.61;70.74;97803.92;236031;1195;139126;-60
2021/11/02 20:28:14;;;;;;;29.30;18.60;;;;;;;9.53;70.61;97811.42;236197;1195;138069;-59
2021/11/02 20:33:18;;;;;;;24.70;18.60;;;;;;;9.49;70.77;97811.56;235991;1195;138693;-60
2021/11/02 20:38:34;;;;;;;29.20;20.10;;;;;;;9.50;70.70;97812.75;236127;1194;140510;-58
2021/11/02 20:43:40;;;;;;;31.80;20.40;;;;;;;9.49;70.85;97820.81;235977;1196;139009;-59
2021/11/02 20:48:54;;;;;;;32.30;22.30;;;;;;;9.44;70.73;97824.38;235533;1194;138106;-59
2021/11/02 20:53:58;;;;;;;31.40;22.50;;;;;;;9.41;71.08;97829.18;236515;1194;140590;-59
2021/11/02 20:59:01;;;;;;;31.50;21.40;;;;;;;9.39;71.06;97829.34;236337;1195;138577;-60
2021/11/02 21:04:05;;;;;;;30.10;21.60;;;;;;;9.33;70.87;97835.10;236459;1193;139051;-58
2021/11/02 21:09:12;;;;;;;34.60;24.70;;;;;;;9.28;71.00;97841.86;236256;1194;139567;-61
2021/11/02 21:14:15;;;;;;;34.30;24.90;;;;;;;9.24;71.21;97844.43;236520;1194;138188;-61
2021/11/02 21:19:22;;;;;;;33.70;23.90;;;;;;;9.21;71.36;97843.61;236530;1195;138432;-60
2021/11/02 21:24:48;;;;;;;32.40;23.10;;;;;;;9.21;71.44;97849.82;236364;1195;139199;-62
2021/11/02 21:29:52;;;;;;;;;;;;;;;9.23;71.30;97852.13;236269;1195;140151;-59
2021/11/02 21:34:56;;;;;;;35.00;23.50;;;;;;;9.25;71.43;97855.36;236515;1194;124919;-58
2021/11/02 21:39:59;;;;;;;36.40;25.00;;;;;;;9.26;71.42;97858.11;236449;1194;138807;-61
2021/11/02 21:45:10;;;;;;;38.40;25.40;;;;;;;9.23;71.51;97854.04;236507;1193;138573;-58
2021/11/02 21:50:15;;;;;;;32.00;23.70;;;;;;;9.28;71.67;97856.37;236462;1193;139406;-58
2021/11/02 21:55:25;;;;;;;34.90;24.80;;;;;;;9.31;71.29;97862.05;236485;1194;139138;-59
2021/11/02 22:00:29;;;;;;;34.60;24.90;;;;;;;9.32;71.46;97866.21;236450;1194;138958;-60
2021/11/02 22:05:32;;;;;;;32.80;24.10;;;;;;;9.29;71.44;97868.55;236636;1194;233975;-60
2021/11/02 22:10:35;;;;;;;31.80;22.90;;;;;;;9.23;71.30;97872.46;236596;1195;138609;-59
2021/11/02 22:15:38;;;;;;;33.30;23.10;;;;;;;9.21;71.19;97869.61;236341;1195;139050;-60
2021/11/02 22:20:42;;;;;;;36.30;24.10;;;;;;;9.20;71.29;97869.37;236584;1194;138857;-59
2021/11/02 22:25:46;;;;;;;37.70;25.40;;;;;;;9.17;71.34;97881.25;236513;1194;138647;-59
2021/11/02 22:30:51;;;;;;;36.80;24.90;;;;;;;9.18;71.30;97888.27;236513;1195;138594;-59
2021/11/02 22:35:57;;;;;;;37.30;25.30;;;;;;;9.19;71.54;97892.75;236138;1195;139199;-62
2021/11/02 22:41:00;;;;;;;37.10;24.30;;;;;;;9.20;71.54;97891.32;236712;1194;139004;-58
2021/11/02 22:46:04;;;;;;;41.30;26.20;;;;;;;9.24;71.49;97895.77;236599;1193;138704;-59
2021/11/02 22:51:08;;;;;;;37.70;24.20;;;;;;;9.26;71.62;97896.34;236417;1195;139247;-60
2021/11/02 22:56:11;;;;;;;32.30;23.00;;;;;;;9.29;71.39;97905.14;236600;1194;139009;-58
2021/11/02 23:01:15;;;;;;;30.60;22.20;;;;;;;9.25;71.24;97908.25;236651;1194;138688;-61
2021/11/02 23:06:18;;;;;;;35.40;23.40;;;;;;;9.20;71.27;97905.95;236587;1193;139576;-61
2021/11/02 23:11:22;;;;;;;34.30;22.40;;;;;;;9.19;71.29;97906.61;236604;1194;138728;-61
2021/11/02 23:16:25;;;;;;;34.00;22.40;;;;;;;9.20;71.37;97909.72;236660;1193;139266;-58
2021/11/02 23:21:57;;;;;;;34.00;23.50;;;;;;;9.19;71.52;97913.00;235981;1194;138748;-59
2021/11/02 23:27:00;;;;;;;34.60;23.00;;;;;;;9.19;71.31;97909.41;236278;1195;138389;-59
2021/11/02 23:32:06;;;;;;;35.60;22.90;;;;;;;9.18;71.47;97911.27;236556;1194;138085;-61
2021/11/02 23:37:11;;;;;;;34.70;21.50;;;;;;;9.21;71.33;97918.30;236136;1194;138419;-60
2021/11/02 23:42:15;;;;;;;36.80;21.90;;;;;;;9.23;71.44;97924.34;236349;1195;139856;-61
2021/11/02 23:47:19;;;;;;;34.70;21.50;;;;;;;9.22;71.69;97929.57;236681;1195;137842;-62
2021/11/02 23:52:22;;;;;;;33.70;22.90;;;;;;;9.20;71.46;97939.41;235851;1195;138859;-60
2021/11/02 23:57:25;;;;;;;34.40;22.30;;;;;;;9.18;71.43;97946.11;236099;1195;138466;-61
